Time;durP1;ratioP1;P1;durP2;ratioP2;P2;SDS_P1;SDS_P2;PMS_P1;PMS_P2;Temp;Humidity;BMP_temperature;BMP_pressure;BME280_temperature;BME280_humidity;BME280_pressure;Samples;Min_cycle;Max_cycle;Signal;HPM_P1;HPM_P2
2022/03/03 00:02:20;;;;;;;32.85;17.80;;;-0.60;90.50;;;-1.98;75.62;97568.69;4973638;28;20480;-81
2022/03/03 00:04:46;;;;;;;29.80;16.47;;;-0.60;90.50;;;-2.04;75.26;97580.56;4974081;28;20404;-82
2022/03/03 00:07:12;;;;;;;28.42;16.63;;;-0.60;90.50;;;-2.00;75.33;97574.03;4973781;28;20407;-81
2022/03/03 00:09:38;;;;;;;33.17;17.92;;;-0.60;90.50;;;-1.97;75.55;97578.09;4974181;28;20404;-82
2022/03/03 00:12:05;;;;;;;32.17;18.13;;;-0.60;90.60;;;-1.95;75.79;97574.34;4973518;28;20440;-82
2022/03/03 00:14:32;;;;;;;33.05;18.13;;;-0.60;90.60;;;-1.95;75.73;97566.56;4973689;28;20451;-81
2022/03/03 00:16:59;;;;;;;31.55;17.20;;;-0.60;90.60;;;-2.02;75.20;97572.56;4973743;28;20524;-81
2022/03/03 00:19:25;;;;;;;31.10;17.35;;;-0.60;90.50;;;-1.91;75.32;97571.41;4973983;28;20407;-81
2022/03/03 00:21:51;;;;;;;30.48;17.13;;;-0.60;90.60;;;-2.02;75.53;97572.56;4973111;28;20543;-81
2022/03/03 00:24:17;;;;;;;28.10;16.53;;;-0.60;90.50;;;-2.02;75.68;97575.16;4973770;28;20499;-81
2022/03/03 00:26:43;;;;;;;31.77;18.23;;;-0.60;90.50;;;-1.96;75.25;97582.31;4973354;28;20502;-82
2022/03/03 00:29:09;;;;;;;33.25;17.10;;;-0.60;90.50;;;-1.99;75.32;97570.47;4973711;28;20408;-80
2022/03/03 00:31:35;;;;;;;32.10;17.58;;;-0.70;90.50;;;-2.01;75.42;97575.00;4973422;28;20404;-80
2022/03/03 00:34:02;;;;;;;32.13;18.80;;;-0.70;90.60;;;-1.98;75.42;97566.09;4980175;22;20440;-74
2022/03/03 00:36:28;;;;;;;33.47;16.67;;;-0.60;90.60;;;-2.00;75.42;97578.41;4965174;28;20413;-74
2022/03/03 00:38:54;;;;;;;30.05;17.75;;;-0.60;90.60;;;-1.99;75.03;97577.44;4963745;28;20416;-73
2022/03/03 00:41:20;;;;;;;30.30;17.95;;;-0.60;90.50;;;-1.99;75.04;97582.63;4964730;28;20416;-73
2022/03/03 00:43:46;;;;;;;28.98;17.08;;;-0.60;90.50;;;-2.00;75.32;97583.59;4954437;28;20410;-73
2022/03/03 00:46:12;;;;;;;32.67;17.83;;;-0.60;90.50;;;-2.03;75.15;97574.34;4953215;29;20418;-73
2022/03/03 00:48:38;;;;;;;32.07;18.00;;;-0.70;90.50;;;-2.10;75.23;97578.59;4953589;29;21041;-73
2022/03/03 00:51:06;;;;;;;29.60;16.50;;;-0.70;90.50;;;-2.15;75.58;97565.34;4953495;29;20768;-73
2022/03/03 00:53:33;;;;;;;30.70;18.40;;;-0.70;90.50;;;-2.11;75.05;97577.00;4952641;28;20485;-73
2022/03/03 00:55:59;;;;;;;31.40;18.13;;;-0.70;90.50;;;-2.12;75.02;97570.19;4953142;29;20783;-74
2022/03/03 00:58:25;;;;;;;29.13;17.60;;;-0.70;90.40;;;-2.16;74.95;97573.28;4953399;29;20504;-74
2022/03/03 01:00:51;;;;;;;30.52;17.50;;;-0.80;90.40;;;-2.24;75.18;97578.47;4936106;29;20436;-74
2022/03/03 01:03:16;;;;;;;30.35;17.17;;;-0.80;90.40;;;-2.24;75.24;97570.69;4952734;28;20398;-74
2022/03/03 01:05:42;;;;;;;30.60;17.80;;;-0.80;90.40;;;-2.27;75.24;97576.22;4953162;29;20416;-73
2022/03/03 01:08:10;;;;;;;33.93;18.83;;;-0.80;90.40;;;-2.26;75.19;97567.47;4952941;29;20576;-73
2022/03/03 01:10:37;;;;;;;36.35;19.80;;;-0.90;90.40;;;-2.27;75.02;97571.84;4953154;29;20927;-73
2022/03/03 01:13:03;;;;;;;33.40;19.48;;;-0.90;90.50;;;-2.24;75.11;97568.09;4935275;29;20533;-73
2022/03/03 01:15:29;;;;;;;33.10;18.42;;;-0.90;90.50;;;-2.34;75.57;97570.91;4953240;29;20406;-73
2022/03/03 01:17:55;;;;;;;34.13;18.23;;;-0.90;90.50;;;-2.34;75.44;97573.50;4952379;29;20497;-73
2022/03/03 01:20:21;;;;;;;32.65;18.75;;;-0.90;90.50;;;-2.32;75.30;97581.91;4952875;29;20489;-73
2022/03/03 01:22:47;;;;;;;30.48;16.95;;;-0.90;90.50;;;-2.40;75.58;97579.31;4952382;28;20401;-74
2022/03/03 01:25:14;;;;;;;26.52;16.73;;;-1.00;90.50;;;-2.49;75.27;97582.91;4952799;29;20945;-73
2022/03/03 01:27:40;;;;;;;24.90;15.30;;;-1.00;90.50;;;-2.59;75.51;97571.91;4952546;29;20464;-72
2022/03/03 01:30:08;;;;;;;33.17;18.13;;;-1.10;90.50;;;-2.52;76.07;97570.28;4952821;29;20464;-73
2022/03/03 01:32:34;;;;;;;29.67;16.73;;;-1.10;90.60;;;-2.61;75.60;97564.28;4951960;28;20530;-73
2022/03/03 01:35:00;;;;;;;29.98;17.00;;;-1.10;90.60;;;-2.59;75.66;97564.13;4952847;29;20425;-73
2022/03/03 01:37:26;;;;;;;30.48;18.00;;;-1.20;90.60;;;-2.58;75.95;97553.59;4952286;29;20971;-73
2022/03/03 01:39:52;;;;;;;33.50;19.15;;;-1.20;90.60;;;-2.57;75.89;97547.47;4952641;29;20497;-74
2022/03/03 01:42:19;;;;;;;34.15;19.33;;;-1.20;90.70;;;-2.56;75.76;97533.53;4934965;28;20492;-73
2022/03/03 01:44:47;;;;;;;31.80;19.02;;;-1.20;90.80;;;-2.63;76.09;97532.53;4957902;28;20448;-73
2022/03/03 01:47:18;;;;;;;29.92;18.00;;;-1.20;90.80;;;-2.69;75.94;97528.03;4960090;28;20424;-73
2022/03/03 01:49:44;;;;;;;28.05;16.75;;;-1.20;90.80;;;-2.76;76.19;97527.88;4960788;28;20468;-73
2022/03/03 01:52:11;;;;;;;27.35;16.10;;;-1.30;90.70;;;-2.84;76.05;97527.88;4962793;28;20918;-73
2022/03/03 01:54:37;;;;;;;24.50;14.40;;;-1.30;90.70;;;-2.91;76.08;97539.88;4963034;28;20408;-73
2022/03/03 01:57:03;;;;;;;34.13;18.30;;;-1.40;90.70;;;-2.83;76.31;97539.06;4951989;29;20460;-73
2022/03/03 01:59:31;;;;;;;37.03;20.30;;;-1.40;90.80;;;-2.76;76.60;97545.19;4952416;29;20421;-73
2022/03/03 02:01:57;;;;;;;35.28;20.02;;;-1.40;91.00;;;-2.74;76.41;97525.94;4951819;29;20410;-73
2022/03/03 02:04:23;;;;;;;35.08;21.20;;;-1.40;91.00;;;-2.73;76.29;97529.34;4952149;28;20420;-73
2022/03/03 02:06:49;;;;;;;41.22;21.33;;;-1.40;91.00;;;-2.74;75.96;97531.13;4951904;29;20441;-73
2022/03/03 02:09:16;;;;;;;35.22;20.55;;;-1.30;91.10;;;-2.74;76.43;97530.31;4952148;29;20409;-73
2022/03/03 02:11:44;;;;;;;36.20;19.38;;;-1.30;91.10;;;-2.75;76.26;97528.69;4951587;29;20414;-73
2022/03/03 02:14:10;;;;;;;32.72;17.40;;;-1.30;91.00;;;-2.87;76.03;97525.63;4934791;29;20414;-73
2022/03/03 02:16:38;;;;;;;27.35;15.82;;;-1.40;90.90;;;-2.93;76.40;97533.25;4950950;28;20512;-73
2022/03/03 02:19:04;;;;;;;27.80;16.20;;;-1.40;90.90;;;-2.99;76.41;97531.28;4944709;29;20406;-73
2022/03/03 02:21:31;;;;;;;33.65;19.00;;;-1.50;90.80;;;-2.89;76.13;97540.53;4951894;29;20488;-72
2022/03/03 02:23:57;;;;;;;31.70;18.52;;;-1.50;91.00;;;-2.98;76.36;97538.91;4951422;28;20417;-73
2022/03/03 02:26:24;;;;;;;34.40;18.23;;;-1.50;90.90;;;-2.94;76.43;97539.41;4951984;29;20921;-73
2022/03/03 02:28:53;;;;;;;32.40;19.42;;;-1.50;91.00;;;-2.87;76.73;97537.78;4952021;29;20496;-72
2022/03/03 02:31:20;;;;;;;36.00;20.33;;;-1.50;91.00;;;-2.86;76.35;97547.97;4952917;29;20457;-73
2022/03/03 02:33:47;;;;;;;36.07;20.60;;;-1.50;91.10;;;-2.90;76.67;97538.91;4951097;28;20440;-73
2022/03/03 02:36:17;;;;;;;34.67;19.83;;;-1.50;91.30;;;-2.90;76.94;97541.50;4951597;29;20413;-73
2022/03/03 02:38:45;;;;;;;33.08;18.70;;;-1.50;91.30;;;-2.91;76.83;97537.28;4952013;29;20413;-73
2022/03/03 02:41:11;;;;;;;31.00;18.25;;;-1.50;91.30;;;-2.99;76.61;97544.22;4951917;29;20497;-73
2022/03/03 02:43:37;;;;;;;28.58;17.58;;;-1.50;91.20;;;-3.10;76.58;97544.56;4951190;28;20405;-74
2022/03/03 02:46:05;;;;;;;27.73;16.67;;;-1.60;91.10;;;-3.17;76.81;97549.59;4951510;29;20789;-73
2022/03/03 02:48:31;;;;;;;24.48;15.73;;;-1.60;91.10;;;-3.23;76.66;97543.25;4951770;29;20475;-73
2022/03/03 02:50:57;;;;;;;26.75;15.20;;;-1.70;91.10;;;-3.27;76.99;97547.13;4951715;29;20414;-73
2022/03/03 02:53:23;;;;;;;26.23;14.93;;;-1.70;91.20;;;-3.32;76.83;97551.19;4951214;28;20426;-72
2022/03/03 02:55:50;;;;;;;35.65;18.65;;;-1.80;91.20;;;-3.19;77.15;97546.34;4951725;29;20500;-73
2022/03/03 02:58:16;;;;;;;31.10;18.13;;;-1.70;91.30;;;-3.27;76.99;97547.13;4951590;29;20406;-73
2022/03/03 03:00:47;;;;;;;31.80;19.10;;;-1.80;91.30;;;-3.32;77.13;97541.66;4951686;28;20412;-73
2022/03/03 03:03:13;;;;;;;34.35;18.63;;;-1.80;91.30;;;-3.29;77.44;97535.31;4954890;28;20441;-73
2022/03/03 03:05:39;;;;;;;36.72;19.65;;;-1.80;91.40;;;-3.19;77.60;97531.63;4955352;29;21014;-73
2022/03/03 03:08:06;;;;;;;33.90;18.60;;;-1.70;91.50;;;-3.21;77.50;97523.19;4955202;29;20410;-73
2022/03/03 03:10:32;;;;;;;29.83;17.02;;;-1.70;91.90;;;-3.22;77.75;97524.16;4955426;29;21075;-73
2022/03/03 03:12:59;;;;;;;33.13;18.10;;;-1.70;91.50;;;-3.27;77.55;97517.84;4954676;28;20418;-73
2022/03/03 03:15:25;;;;;;;29.13;17.50;;;-1.70;91.60;;;-3.28;77.90;97514.47;4955304;29;20429;-73
2022/03/03 03:17:52;;;;;;;32.17;18.23;;;-1.80;91.60;;;-3.21;77.79;97510.25;4954821;29;20500;-73
2022/03/03 03:20:18;;;;;;;25.90;15.00;;;-1.80;91.50;;;-3.34;77.35;97504.75;4937915;29;20433;-73
2022/03/03 03:22:44;;;;;;;23.93;14.40;;;-1.80;91.50;;;-3.41;77.47;97514.13;4954702;28;20398;-73
2022/03/03 03:25:13;;;;;;;30.35;16.55;;;-1.90;91.40;;;-3.39;77.76;97517.38;4955165;29;20428;-73
2022/03/03 03:27:42;;;;;;;29.35;16.85;;;-1.90;91.90;;;-3.40;77.92;97515.75;4954727;29;20802;-73
2022/03/03 03:30:12;;;;;;;34.78;18.33;;;-1.80;91.60;;;-3.32;77.87;97510.59;4955102;29;20406;-73
2022/03/03 03:32:38;;;;;;;34.65;18.67;;;-1.80;91.60;;;-3.36;78.14;97504.09;4954090;28;20425;-74
2022/03/03 03:35:06;;;;;;;30.38;17.65;;;-1.80;91.70;;;-3.42;77.60;97496.97;4954980;29;20410;-73
2022/03/03 03:37:32;;;;;;;35.10;19.20;;;-1.90;91.70;;;-3.33;77.89;97501.19;4954574;29;20962;-73
2022/03/03 03:39:58;;;;;;;35.83;19.35;;;-1.90;91.70;;;-3.36;78.03;97496.34;4954920;29;20480;-74
2022/03/03 03:42:24;;;;;;;37.30;20.42;;;-1.90;91.70;;;-3.40;78.08;97496.81;4937037;28;20410;-73
2022/03/03 03:44:50;;;;;;;33.22;18.80;;;-1.90;91.70;;;-3.44;77.89;97493.75;4954828;29;20896;-74
2022/03/03 03:47:17;;;;;;;37.13;20.95;;;-1.90;91.70;;;-3.32;77.77;97494.25;4954412;29;20505;-73
2022/03/03 03:49:43;;;;;;;34.10;19.77;;;-1.90;91.70;;;-3.44;77.64;97485.16;4954705;29;20921;-74
2022/03/03 03:52:09;;;;;;;32.47;18.63;;;-1.90;91.70;;;-3.54;77.94;97483.56;4954039;28;20469;-74
2022/03/03 03:54:35;;;;;;;33.72;18.92;;;-2.00;91.70;;;-3.58;78.21;97482.25;4937227;29;20431;-73
2022/03/03 03:57:01;;;;;;;38.10;21.05;;;-2.00;91.70;;;-3.47;78.07;97483.72;4954187;29;20445;-74
2022/03/03 03:59:27;;;;;;;35.97;20.77;;;-2.00;92.10;;;-3.46;77.80;97479.38;4954530;29;20880;-74
2022/03/03 04:01:53;;;;;;;38.50;21.13;;;-2.00;91.70;;;-3.52;77.46;97475.63;4953787;29;20410;-74
2022/03/03 04:04:20;;;;;;;33.33;19.85;;;-2.00;91.70;;;-3.54;77.59;97480.16;4954414;28;20418;-74
2022/03/03 04:06:46;;;;;;;35.38;19.73;;;-2.00;91.70;;;-3.58;78.06;97481.44;4952895;29;20436;-74
2022/03/03 04:09:12;;;;;;;33.78;19.92;;;-2.10;91.70;;;-3.56;78.16;97482.91;4954301;29;20954;-73
2022/03/03 04:11:37;;;;;;;36.10;20.30;;;-2.10;91.70;;;-3.55;77.92;97474.19;4953758;29;20406;-73
2022/03/03 04:14:04;;;;;;;40.63;21.13;;;-2.10;91.80;;;-3.46;77.83;97472.41;4953332;28;20421;-73
2022/03/03 04:16:30;;;;;;;37.70;21.42;;;-2.00;91.80;;;-3.57;78.20;97468.34;4953862;29;20413;-73
2022/03/03 04:18:56;;;;;;;40.17;21.98;;;-2.10;91.70;;;-3.52;78.27;97467.84;4954177;29;20468;-74
2022/03/03 04:21:23;;;;;;;37.08;21.15;;;-2.10;91.80;;;-3.59;78.11;97477.22;4954077;29;20465;-73
2022/03/03 04:23:49;;;;;;;32.50;18.45;;;-2.10;91.80;;;-3.67;77.96;97474.63;4953464;28;20402;-73
2022/03/03 04:26:15;;;;;;;29.75;16.95;;;-2.10;91.80;;;-3.73;77.89;97473.50;4953677;29;20751;-74
2022/03/03 04:28:41;;;;;;;28.45;16.35;;;-2.20;91.80;;;-3.80;77.92;97477.69;4954031;29;20409;-73
2022/03/03 04:31:07;;;;;;;38.20;20.38;;;-2.20;91.80;;;-3.70;78.53;97470.59;4953939;29;20410;-73
2022/03/03 04:33:33;;;;;;;37.25;20.90;;;-2.20;91.80;;;-3.67;78.14;97461.69;4953084;28;20461;-73
2022/03/03 04:35:59;;;;;;;34.97;21.15;;;-2.20;91.90;;;-3.71;78.31;97463.81;4953599;29;20406;-74
2022/03/03 04:38:26;;;;;;;34.43;19.90;;;-2.20;91.90;;;-3.76;78.48;97454.91;4953856;29;20485;-73
2022/03/03 04:40:52;;;;;;;42.05;22.33;;;-2.20;91.90;;;-3.73;78.05;97457.97;4953787;29;20850;-73
2022/03/03 04:43:18;;;;;;;32.67;18.95;;;-2.20;92.00;;;-3.81;78.57;97462.31;4953181;28;20509;-73
2022/03/03 04:45:44;;;;;;;30.02;17.83;;;-2.30;92.00;;;-3.83;78.65;97454.72;4953550;29;20497;-72
2022/03/03 04:48:10;;;;;;;33.03;18.90;;;-2.30;92.00;;;-3.84;78.67;97463.47;4953382;29;20777;-73
2022/03/03 04:50:36;;;;;;;33.80;19.20;;;-2.30;92.00;;;-3.81;78.48;97459.75;4953509;29;20880;-73
2022/03/03 04:53:03;;;;;;;34.67;20.58;;;-2.30;92.00;;;-3.73;78.80;97455.38;4952888;28;20433;-74
2022/03/03 04:55:30;;;;;;;35.58;19.55;;;-2.30;92.00;;;-3.82;78.71;97453.75;4953460;29;20413;-74
2022/03/03 04:57:56;;;;;;;39.63;22.10;;;-2.30;92.00;;;-3.73;78.72;97455.38;4953146;29;20776;-73
2022/03/03 05:00:22;;;;;;;38.25;21.17;;;-2.20;92.10;;;-3.75;78.79;97457.31;4953304;29;20792;-74
2022/03/03 05:02:48;;;;;;;31.27;18.90;;;-2.20;92.10;;;-3.77;78.87;97456.69;4952791;28;20449;-73
2022/03/03 05:05:13;;;;;;;34.92;20.17;;;-2.20;92.00;;;-3.76;78.83;97458.28;4952509;29;20467;-73
2022/03/03 05:07:39;;;;;;;33.05;18.45;;;-2.20;92.00;;;-3.82;78.20;97456.34;4952023;29;20432;-73
2022/03/03 05:10:07;;;;;;;34.97;19.10;;;-2.30;92.00;;;-3.81;78.40;97449.41;4953063;29;20506;-73
2022/03/03 05:12:35;;;;;;;37.55;21.42;;;-2.30;92.00;;;-3.72;78.52;97446.66;4952274;28;20425;-74
2022/03/03 05:15:01;;;;;;;34.97;20.70;;;-2.20;91.90;;;-3.70;78.54;97438.75;4953142;29;20501;-74
2022/03/03 05:17:27;;;;;;;35.38;19.77;;;-2.20;91.90;;;-3.75;78.53;97433.22;4952795;29;20429;-74
2022/03/03 05:19:54;;;;;;;31.17;18.08;;;-2.20;92.00;;;-3.81;78.17;97429.50;4953077;29;20427;-75
2022/03/03 05:22:20;;;;;;;33.53;17.70;;;-2.20;92.00;;;-3.83;78.65;97428.84;4952166;28;20410;-74
2022/03/03 05:24:50;;;;;;;33.60;18.92;;;-2.30;92.00;;;-3.83;78.45;97426.28;4952676;28;20413;-74
2022/03/03 05:27:15;;;;;;;33.75;19.33;;;-2.30;92.00;;;-3.82;78.48;97430.47;4952604;29;20406;-74
2022/03/03 05:29:43;;;;;;;42.80;21.95;;;-2.30;92.00;;;-3.77;78.56;97419.69;4952853;29;20410;-74
2022/03/03 05:32:09;;;;;;;41.55;22.00;;;-2.30;92.10;;;-3.77;78.59;97411.91;4952238;28;20425;-74
2022/03/03 05:34:34;;;;;;;40.25;21.98;;;-2.30;92.10;;;-3.84;78.53;97404.00;4952585;29;20421;-74
2022/03/03 05:37:01;;;;;;;37.65;21.85;;;-2.30;92.10;;;-3.80;78.34;97412.22;4952342;29;20441;-74
2022/03/03 05:39:28;;;;;;;34.78;20.33;;;-2.40;92.10;;;-3.88;78.49;97417.38;4952735;29;20749;-74
2022/03/03 05:41:54;;;;;;;34.38;18.13;;;-2.40;92.10;;;-3.93;78.51;97426.44;4952032;29;20884;-74
2022/03/03 05:44:21;;;;;;;39.40;20.80;;;-2.40;92.10;;;-3.77;78.56;97433.41;4952477;28;20429;-74
2022/03/03 05:46:49;;;;;;;33.85;19.40;;;-2.30;92.10;;;-3.87;78.59;97430.16;4952335;29;20401;-73
2022/03/03 05:49:16;;;;;;;36.22;19.52;;;-2.40;92.00;;;-3.90;78.54;97433.88;4952448;29;20464;-72
2022/03/03 05:51:42;;;;;;;38.55;20.17;;;-2.40;92.10;;;-3.82;78.71;97429.66;4951949;29;20839;-73
2022/03/03 05:54:08;;;;;;;35.25;20.05;;;-2.40;92.10;;;-3.85;78.84;97437.75;4952311;28;20516;-73
2022/03/03 05:56:39;;;;;;;44.10;22.10;;;-2.30;92.10;;;-3.81;78.47;97437.28;4934908;29;20521;-73
2022/03/03 05:59:07;;;;;;;39.33;23.00;;;-2.30;92.10;;;-3.80;78.93;97435.50;4952362;29;20402;-73
2022/03/03 06:01:35;;;;;;;38.28;21.80;;;-2.30;92.10;;;-3.82;78.76;97427.91;4952284;29;20403;-73
2022/03/03 06:04:03;;;;;;;35.58;20.50;;;-2.30;92.20;;;-3.87;78.46;97431.94;4951804;28;20414;-73
2022/03/03 06:06:31;;;;;;;31.65;17.77;;;-2.40;92.10;;;-3.95;78.68;97433.53;4952053;29;20493;-73
2022/03/03 06:09:04;;;;;;;41.17;21.27;;;-2.40;92.10;;;-3.81;78.95;97428.72;4934947;29;20472;-73
2022/03/03 06:11:30;;;;;;;39.28;21.20;;;-2.40;92.20;;;-3.85;78.74;97430.81;4952231;29;20402;-74
2022/03/03 06:14:05;;;;;;;34.95;20.55;;;-2.30;92.20;;;-3.90;78.93;97433.06;4951407;28;20426;-74
2022/03/03 06:16:31;;;;;;;40.75;22.33;;;-2.40;92.20;;;-3.77;78.68;97435.19;4951833;29;20414;-73
2022/03/03 06:18:59;;;;;;;39.25;21.30;;;-2.30;92.30;;;-3.76;78.63;97431.66;4934561;29;20857;-73
2022/03/03 06:21:26;;;;;;;38.88;21.58;;;-2.30;92.60;;;-3.72;78.60;97435.50;4934883;29;20800;-74
2022/03/03 06:23:52;;;;;;;36.25;19.85;;;-2.30;92.20;;;-3.80;78.68;97438.09;4951374;28;20402;-74
2022/03/03 06:26:20;;;;;;;37.63;20.50;;;-2.30;92.20;;;-3.78;78.88;97436.16;4951665;29;20424;-75
2022/03/03 06:28:47;;;;;;;35.28;19.20;;;-2.30;92.20;;;-3.78;78.98;97438.75;4951963;29;20409;-74
2022/03/03 06:31:13;;;;;;;39.25;20.92;;;-2.30;92.20;;;-3.70;79.03;97439.56;4951970;29;20414;-73
2022/03/03 06:33:41;;;;;;;40.72;21.83;;;-2.20;92.20;;;-3.65;78.57;97434.72;4966945;23;20947;-85
2022/03/03 06:36:08;;;;;;;45.92;23.33;;;-2.20;92.20;;;-3.54;79.05;97423.25;4968306;28;20419;-85
2022/03/03 06:38:35;;;;;;;40.58;21.45;;;-2.10;92.20;;;-3.60;77.94;97421.28;4970375;28;20511;-84
2022/03/03 06:41:02;;;;;;;41.70;22.02;;;-2.10;92.10;;;-3.52;78.20;97413.53;4971304;28;20609;-84
2022/03/03 06:43:29;;;;;;;34.13;20.13;;;-2.10;92.10;;;-3.55;78.59;97396.56;4971025;28;20935;-85
2022/03/03 06:45:56;;;;;;;37.28;20.80;;;-2.10;92.10;;;-3.51;78.50;97395.25;4971370;28;20408;-84
2022/03/03 06:48:22;;;;;;;34.80;18.67;;;-2.00;92.20;;;-3.55;78.54;97396.56;4971461;28;20403;-84
2022/03/03 06:50:52;;;;;;;43.25;21.33;;;-2.10;92.20;;;-3.46;78.77;97393.97;4971507;28;20411;-84
2022/03/03 06:53:25;;;;;;;39.97;22.00;;;-2.00;92.20;;;-3.40;78.73;97386.38;4969611;28;20483;-86
2022/03/03 06:55:59;;;;;;;37.60;20.88;;;-1.90;92.20;;;-3.33;78.76;97376.97;4970619;28;20412;-84
2022/03/03 06:58:26;;;;;;;41.35;22.17;;;-1.90;92.20;;;-3.27;78.76;97367.75;4970212;28;20431;-77
2022/03/03 07:00:52;;;;;;;38.47;21.80;;;-1.90;92.20;;;-3.25;78.34;97348.50;4970382;28;20439;-76
2022/03/03 07:03:21;;;;;;;35.22;20.13;;;-1.80;92.20;;;-3.18;78.70;97335.69;4968648;28;21161;-86
2022/03/03 07:05:47;;;;;;;36.83;21.35;;;-1.70;92.20;;;-3.08;78.67;97338.09;4971325;28;20906;-85
2022/03/03 07:08:14;;;;;;;33.55;19.50;;;-1.70;92.30;;;-3.03;78.26;97336.63;4974580;28;20412;-86
2022/03/03 07:10:40;;;;;;;34.67;20.00;;;-1.60;92.30;;;-2.98;78.69;97329.16;4967258;28;20412;-86
2022/03/03 07:13:07;;;;;;;32.65;18.23;;;-1.50;92.30;;;-2.91;78.71;97340.47;4967444;28;20435;-87
2022/03/03 07:15:42;;;;;;;32.03;18.40;;;-1.50;92.20;;;-2.83;78.20;97343.00;4986645;28;20418;-86
2022/03/03 07:18:14;;;;;;;27.13;16.48;;;-1.40;92.20;;;-2.75;78.21;97353.34;4979384;28;20513;-81
2022/03/03 07:20:53;;;;;;;27.65;15.82;;;-1.40;92.10;;;-2.65;78.13;97357.53;4977525;28;20818;-86
2022/03/03 07:23:32;;;;;;;29.88;17.35;;;-1.30;92.00;;;-2.55;77.76;97374.47;4982797;28;20412;-86
2022/03/03 07:26:00;;;;;;;26.73;16.00;;;-1.20;92.00;;;-2.45;77.52;97377.66;4982817;28;20411;-86
2022/03/03 07:28:30;;;;;;;32.90;18.98;;;-1.10;91.90;;;-2.31;77.51;97380.50;4964438;28;20510;-86
2022/03/03 07:31:01;;;;;;;41.03;22.70;;;-1.00;91.80;;;-2.17;77.19;97383.19;4975214;28;20917;-84
2022/03/03 07:33:40;;;;;;;34.90;20.65;;;-0.80;91.60;;;-2.02;76.63;97378.06;4986334;28;20423;-86
2022/03/03 07:36:12;;;;;;;41.63;22.00;;;-0.70;91.50;;;-1.87;76.53;97378.94;4970190;28;20865;-87
2022/03/03 07:38:39;;;;;;;36.70;19.65;;;-0.50;91.40;;;-1.71;76.18;97381.41;4974040;28;20435;-85
2022/03/03 07:41:07;;;;;;;29.85;17.48;;;-0.40;91.20;;;-1.56;76.15;97389.25;4970327;28;20432;-85
2022/03/03 07:43:34;;;;;;;27.02;16.88;;;-0.30;91.10;;;-1.45;75.58;97394.03;4973442;28;20503;-85
2022/03/03 07:46:01;;;;;;;34.35;19.02;;;-0.10;90.90;;;-1.33;74.86;97397.81;4964476;28;20539;-78
2022/03/03 07:48:27;;;;;;;38.97;20.65;;;0.00;90.70;;;-1.20;74.63;97390.22;4969389;28;20420;-87
2022/03/03 07:50:53;;;;;;;32.72;19.13;;;0.10;90.50;;;-1.05;74.92;97390.25;4975742;28;20760;-78
2022/03/03 07:53:19;;;;;;;29.40;17.17;;;0.20;91.10;;;-0.97;75.15;97397.97;4966390;28;20459;-81
2022/03/03 07:55:47;;;;;;;33.80;19.85;;;0.30;91.40;;;-0.93;75.19;97393.22;4972363;28;20408;-82
2022/03/03 07:58:17;;;;;;;33.42;19.50;;;0.40;91.10;;;-0.86;75.41;97392.34;4974132;28;20540;-78
2022/03/03 08:00:51;;;;;;;29.63;17.85;;;0.40;91.00;;;-0.78;75.39;97386.25;4974581;28;20400;-78
2022/03/03 08:03:19;;;;;;;34.97;19.13;;;0.50;91.00;;;-0.71;75.57;97386.31;4979963;23;20536;-88
2022/03/03 08:05:49;;;;;;;28.63;17.52;;;0.50;90.90;;;-0.64;75.37;97397.63;4975384;28;20446;-78
2022/03/03 08:08:19;;;;;;;29.48;16.55;;;0.60;90.90;;;-0.58;74.90;97399.50;4973833;28;20956;-76
2022/03/03 08:10:46;;;;;;;25.40;16.03;;;0.60;90.70;;;-0.53;74.96;97394.56;4964065;28;20427;-78
2022/03/03 08:13:14;;;;;;;27.80;16.42;;;0.70;90.60;;;-0.49;75.27;97382.81;4978387;28;20446;-75
2022/03/03 08:15:41;;;;;;;31.15;18.13;;;0.80;90.60;;;-0.42;75.25;97394.09;4993645;28;20407;-80
2022/03/03 08:18:10;;;;;;;28.20;17.08;;;0.80;90.50;;;-0.36;74.62;97393.38;4989433;28;20421;-81
2022/03/03 08:20:38;;;;;;;24.42;15.45;;;0.90;90.50;;;-0.30;74.65;97391.84;4991033;28;20942;-80
2022/03/03 08:23:06;;;;;;;29.75;17.08;;;0.90;90.40;;;-0.25;74.42;97379.09;4985171;28;20466;-79
2022/03/03 08:25:34;;;;;;;29.35;16.80;;;0.90;90.30;;;-0.18;74.80;97380.78;4992756;28;20952;-84
2022/03/03 08:28:02;;;;;;;29.55;16.75;;;1.00;90.30;;;-0.11;74.74;97378.25;4992541;28;20893;-81
2022/03/03 08:30:29;;;;;;;32.70;18.45;;;1.10;90.30;;;-0.04;74.46;97384.34;4991609;28;20423;-78
2022/03/03 08:33:06;;;;;;;31.67;17.92;;;1.10;90.30;;;0.04;74.22;97388.63;4992318;28;20481;-76
2022/03/03 08:35:39;;;;;;;31.95;17.60;;;1.20;90.20;;;0.08;73.68;97380.25;4990156;28;20831;-75
2022/03/03 08:38:10;;;;;;;28.67;16.90;;;1.30;90.00;;;0.11;73.40;97373.88;4989447;28;20505;-76
2022/03/03 08:40:36;;;;;;;34.15;17.98;;;1.30;89.70;;;0.17;73.93;97373.94;4992058;28;20422;-77
2022/03/03 08:43:06;;;;;;;31.55;18.77;;;1.40;89.80;;;0.26;73.78;97388.44;4992074;28;20465;-75
2022/03/03 08:45:34;;;;;;;28.75;17.42;;;1.40;90.00;;;0.36;73.58;97381.13;4993375;28;20438;-76
2022/03/03 08:48:03;;;;;;;28.33;16.98;;;1.50;89.90;;;0.49;73.55;97390.06;4993185;28;20402;-75
2022/03/03 08:50:31;;;;;;;33.45;18.83;;;1.60;89.60;;;0.58;73.30;97381.94;4992088;28;20490;-76
2022/03/03 08:53:00;;;;;;;32.17;18.77;;;1.70;89.30;;;0.69;73.10;97384.00;5002579;28;20498;-86
2022/03/03 08:55:27;;;;;;;33.47;18.75;;;1.80;89.10;;;0.79;72.65;97388.91;4987656;28;21003;-89
2022/03/03 08:57:53;;;;;;;30.33;18.55;;;1.90;88.80;;;0.90;72.23;97384.97;4983137;28;20406;-86
2022/03/03 09:00:20;;;;;;;29.75;17.80;;;2.10;88.50;;;0.97;72.01;97389.25;5001674;28;20465;-82
2022/03/03 09:02:48;;;;;;;31.63;18.48;;;2.10;88.20;;;1.04;71.91;97390.09;4998394;28;20484;-78
2022/03/03 09:05:14;;;;;;;30.92;18.00;;;2.20;87.90;;;1.09;71.79;97384.28;4989657;28;20419;-79
2022/03/03 09:07:41;;;;;;;29.17;17.13;;;2.20;87.60;;;1.15;71.51;97392.16;4990444;28;20410;-86
2022/03/03 09:10:09;;;;;;;31.10;18.80;;;2.30;87.50;;;1.20;71.41;97390.78;4975390;28;20465;-82
2022/03/03 09:12:35;;;;;;;32.95;19.67;;;2.30;87.30;;;1.24;71.40;97386.78;4992125;28;20476;-84
2022/03/03 09:15:01;;;;;;;31.13;19.20;;;2.40;87.10;;;1.28;71.00;97385.41;4992084;28;20490;-79
2022/03/03 09:17:27;;;;;;;30.52;18.08;;;2.40;86.90;;;1.30;71.14;97389.44;4989045;28;20415;-78
2022/03/03 09:19:53;;;;;;;29.63;17.77;;;2.40;86.70;;;1.34;70.87;97384.66;4991693;28;20827;-81
2022/03/03 09:22:19;;;;;;;31.08;17.85;;;2.40;86.60;;;1.37;70.74;97389.47;4989453;28;20506;-80
2022/03/03 09:24:45;;;;;;;30.75;17.73;;;2.50;86.50;;;1.40;70.93;97382.06;4991795;28;20453;-80
2022/03/03 09:27:12;;;;;;;31.77;18.43;;;2.50;86.50;;;1.44;70.66;97385.88;4991736;28;20765;-80
2022/03/03 09:29:38;;;;;;;30.13;18.90;;;2.50;86.50;;;1.49;70.46;97391.34;4991846;28;20403;-81
2022/03/03 09:32:06;;;;;;;33.72;18.77;;;2.60;86.40;;;1.55;70.56;97390.56;4991261;28;20529;-81
2022/03/03 09:34:32;;;;;;;33.35;19.17;;;2.60;86.30;;;1.59;70.36;97380.53;4990567;28;20419;-79
2022/03/03 09:36:58;;;;;;;33.55;19.52;;;2.70;86.00;;;1.64;70.46;97385.19;5001672;28;20494;-79
2022/03/03 09:39:25;;;;;;;36.25;20.75;;;2.70;85.90;;;1.69;70.23;97394.03;4985757;28;20425;-80
2022/03/03 09:41:52;;;;;;;30.00;19.02;;;2.70;85.70;;;1.77;70.16;97400.88;4989990;28;20472;-81
2022/03/03 09:44:22;;;;;;;30.80;18.97;;;2.80;85.70;;;1.82;69.82;97395.88;4990731;28;20437;-78
2022/03/03 09:46:48;;;;;;;30.83;18.75;;;2.90;85.60;;;1.88;69.94;97395.13;4988662;28;20421;-83
2022/03/03 09:49:14;;;;;;;28.63;17.45;;;2.90;85.30;;;1.97;69.70;97399.16;4988397;28;20440;-84
2022/03/03 09:51:40;;;;;;;38.70;20.38;;;3.00;85.20;;;2.03;69.73;97393.13;4987289;28;20414;-84
2022/03/03 09:54:07;;;;;;;32.55;18.92;;;3.10;85.10;;;2.13;69.39;97385.75;4990451;28;21002;-80
2022/03/03 09:56:33;;;;;;;30.83;18.05;;;3.20;84.80;;;2.24;69.19;97387.78;4990645;28;20413;-78
2022/03/03 09:58:59;;;;;;;29.50;18.73;;;3.30;84.60;;;2.37;68.91;97387.00;4983613;28;20411;-81
2022/03/03 10:01:30;;;;;;;29.60;18.85;;;3.40;84.30;;;2.51;68.45;97380.78;4986194;28;20433;-80
2022/03/03 10:03:58;;;;;;;33.33;18.77;;;3.50;83.80;;;2.79;68.03;97385.81;4988362;28;20858;-78
2022/03/03 10:06:24;;;;;;;31.92;18.98;;;3.70;83.30;;;3.34;67.10;97376.69;4987012;28;20896;-80
2022/03/03 10:08:50;;;;;;;33.55;19.27;;;4.20;83.10;;;4.20;65.43;97382.38;4990051;28;20553;-76